createdAt,value
2019-05-13T00:00:58.217Z,8.40
2019-05-13T00:03:27.335Z,8.30
2019-05-13T00:05:56.143Z,8.40
2019-05-13T00:08:25.162Z,8.40
2019-05-13T00:10:54.414Z,8.40
2019-05-13T00:13:23.793Z,8.40
2019-05-13T00:15:54.384Z,8.40
2019-05-13T00:18:23.688Z,8.40
2019-05-13T00:20:54.219Z,8.40
2019-05-13T00:23:23.449Z,8.30
2019-05-13T00:25:54.566Z,8.30
2019-05-13T00:28:23.572Z,8.30
2019-05-13T00:30:54.272Z,8.40
2019-05-13T00:33:24.381Z,8.40
2019-05-13T00:35:53.545Z,8.60
2019-05-13T00:38:24.391Z,8.60
2019-05-13T00:40:54.527Z,8.60
2019-05-13T00:43:24.522Z,8.60
2019-05-13T00:45:53.646Z,8.50
2019-05-13T00:48:23.329Z,8.40
2019-05-13T00:50:54.417Z,8.30
2019-05-13T00:53:23.711Z,8.30
2019-05-13T00:55:53.605Z,8.20
2019-05-13T00:58:24.231Z,8.20
2019-05-13T01:00:54.681Z,8.40
2019-05-13T01:03:26.307Z,8.40
2019-05-13T01:05:54.531Z,8.40
2019-05-13T01:08:23.831Z,8.30
2019-05-13T01:10:53.673Z,8.30
2019-05-13T01:13:23.797Z,8.20
2019-05-13T01:15:54.425Z,8.20
2019-05-13T01:18:23.524Z,8.20
2019-05-13T01:20:53.810Z,8.20
2019-05-13T01:23:24.064Z,8.40
2019-05-13T01:25:54.412Z,8.40
2019-05-13T01:28:24.039Z,8.40
2019-05-13T01:30:53.960Z,8.40
2019-05-13T01:33:23.587Z,8.30
2019-05-13T01:35:53.794Z,8.20
2019-05-13T01:38:24.035Z,8.30
2019-05-13T01:40:53.912Z,8.20
2019-05-13T01:43:24.491Z,8.10
2019-05-13T01:45:53.817Z,8.10
2019-05-13T01:48:24.031Z,8.00
2019-05-13T01:50:53.464Z,8.10
2019-05-13T01:53:24.419Z,8.10
2019-05-13T01:55:53.320Z,8.10
2019-05-13T01:58:23.561Z,8.10
2019-05-13T02:00:54.916Z,8.10
2019-05-13T02:03:24.552Z,8.20
2019-05-13T02:05:54.428Z,8.20
2019-05-13T02:08:24.587Z,8.10
2019-05-13T02:10:55.164Z,8.00
2019-05-13T02:13:24.974Z,8.10
2019-05-13T02:15:56.059Z,8.00
2019-05-13T02:18:25.085Z,7.90
2019-05-13T02:20:55.466Z,7.90
2019-05-13T02:23:25.204Z,7.90
2019-05-13T02:25:54.692Z,7.90
2019-05-13T02:28:24.776Z,7.90
2019-05-13T02:30:55.999Z,7.90
2019-05-13T02:33:24.923Z,7.90
2019-05-13T02:35:54.115Z,7.90
2019-05-13T02:38:28.840Z,7.80
2019-05-13T02:40:53.990Z,7.80
2019-05-13T02:43:23.818Z,7.90
2019-05-13T02:45:54.037Z,7.90
2019-05-13T02:48:24.036Z,7.90
2019-05-13T02:50:54.090Z,7.90
2019-05-13T02:53:24.181Z,7.80
2019-05-13T02:55:53.470Z,7.80
2019-05-13T02:58:24.493Z,7.70
2019-05-13T03:00:53.897Z,7.60
2019-05-13T03:03:23.848Z,7.60
2019-05-13T03:05:53.641Z,7.60
2019-05-13T03:08:39.092Z,7.40
2019-05-13T03:10:54.206Z,7.30
2019-05-13T03:13:24.111Z,7.30
2019-05-13T03:16:13.426Z,7.20
2019-05-13T03:18:43.967Z,7.10
2019-05-13T03:21:13.427Z,7.00
2019-05-13T03:23:43.944Z,6.90
2019-05-13T03:26:13.453Z,6.80
2019-05-13T03:28:43.908Z,6.80
2019-05-13T03:31:16.812Z,6.80
2019-05-13T03:33:46.331Z,6.60
2019-05-13T03:36:17.249Z,6.60
2019-05-13T03:39:01.442Z,6.60
2019-05-13T03:41:18.125Z,6.70
2019-05-13T03:43:47.466Z,6.80
2019-05-13T03:46:22.442Z,6.90
2019-05-13T03:48:53.227Z,6.90
2019-05-13T03:51:22.999Z,6.90
2019-05-13T03:53:53.400Z,7.00
2019-05-13T03:56:23.908Z,7.00
2019-05-13T03:58:53.804Z,7.00
2019-05-13T04:01:22.943Z,7.10
2019-05-13T04:03:52.899Z,7.00
2019-05-13T04:06:23.261Z,7.10
2019-05-13T04:08:54.032Z,7.10
2019-05-13T04:11:23.414Z,7.20
2019-05-13T04:13:53.029Z,7.20
2019-05-13T04:16:23.680Z,7.20
2019-05-13T04:18:53.880Z,7.10
2019-05-13T04:21:23.329Z,7.20
2019-05-13T04:23:53.184Z,7.20
2019-05-13T04:26:23.592Z,7.30
2019-05-13T04:28:53.106Z,7.40
2019-05-13T04:31:22.979Z,7.50
2019-05-13T04:33:53.262Z,7.60
2019-05-13T04:36:23.789Z,7.60
2019-05-13T04:38:53.272Z,7.70
2019-05-13T04:41:23.197Z,7.70
2019-05-13T04:43:54.148Z,7.70
2019-05-13T04:46:23.372Z,7.80
2019-05-13T04:48:53.211Z,7.80
2019-05-13T04:51:22.915Z,7.90
2019-05-13T04:53:55.983Z,7.90
2019-05-13T04:56:22.662Z,8.00
2019-05-13T04:58:52.758Z,8.00
2019-05-13T05:04:28.711Z,8.20
2019-05-13T05:06:59.543Z,8.30
2019-05-13T05:10:30.487Z,8.30
2019-05-13T05:13:26.420Z,8.30
2019-05-13T05:16:36.295Z,8.30
2019-05-13T05:19:46.681Z,8.40
2019-05-13T05:22:42.651Z,8.40
2019-05-13T05:25:41.643Z,8.40
2019-05-13T05:28:41.981Z,8.40
2019-05-13T05:31:58.275Z,8.40
2019-05-13T05:34:43.391Z,8.40
2019-05-13T05:38:12.288Z,8.40
2019-05-13T05:40:44.113Z,8.30
2019-05-13T05:43:14.462Z,8.50
2019-05-13T05:45:43.406Z,8.60
2019-05-13T05:48:16.271Z,8.70
2019-05-13T05:50:47.371Z,8.90
2019-05-13T05:53:17.925Z,9.00
2019-05-13T05:55:51.777Z,9.00
2019-05-13T05:58:22.861Z,9.10
2019-05-13T06:00:55.828Z,9.20
2019-05-13T06:03:27.044Z,9.30
2019-05-13T06:05:56.114Z,9.40
2019-05-13T06:08:25.058Z,9.50
2019-05-13T06:10:54.053Z,9.70
2019-05-13T06:13:23.015Z,9.70
2019-05-13T06:15:51.922Z,9.70
2019-05-13T06:18:22.216Z,9.70
2019-05-13T06:20:51.389Z,9.70
2019-05-13T06:23:22.163Z,9.70
2019-05-13T06:25:52.629Z,9.70
2019-05-13T06:28:21.935Z,9.80
2019-05-13T06:30:52.020Z,9.90
2019-05-13T06:33:21.351Z,10.00
2019-05-13T06:35:52.131Z,10.10
2019-05-13T06:38:22.545Z,10.10
2019-05-13T06:41:00.518Z,10.20
2019-05-13T06:43:22.484Z,10.30
2019-05-13T06:45:51.509Z,10.50
2019-05-13T06:48:22.940Z,10.70
2019-05-13T06:50:52.098Z,10.80
2019-05-13T06:53:21.766Z,10.80
2019-05-13T06:55:52.323Z,10.80
2019-05-13T06:58:22.263Z,11.00
2019-05-13T07:00:51.752Z,11.10
2019-05-13T07:03:21.999Z,11.10
2019-05-13T07:05:52.430Z,11.20
2019-05-13T07:08:22.244Z,11.10
2019-05-13T07:10:51.610Z,11.10
2019-05-13T07:13:21.814Z,11.20
2019-05-13T07:15:52.148Z,11.40
2019-05-13T07:18:21.889Z,11.40
2019-05-13T07:20:53.097Z,11.50
2019-05-13T07:23:22.495Z,11.70
2019-05-13T07:25:52.519Z,11.80
2019-05-13T07:28:21.986Z,12.00
2019-05-13T07:30:51.596Z,11.90
2019-05-13T07:33:21.379Z,11.80
2019-05-13T07:35:56.816Z,11.90
2019-05-13T07:38:22.401Z,11.90
2019-05-13T07:40:57.228Z,12.10
2019-05-13T07:43:26.022Z,12.40
2019-05-13T07:45:54.815Z,12.70
2019-05-13T07:48:27.448Z,13.00
2019-05-13T07:51:00.205Z,13.20
2019-05-13T07:53:25.227Z,13.40
2019-05-13T07:55:54.110Z,13.40
2019-05-13T07:58:23.611Z,13.50
2019-05-13T08:00:52.484Z,13.60
2019-05-13T08:03:21.576Z,13.60
2019-05-13T08:05:51.338Z,13.70
2019-05-13T08:08:22.049Z,14.00
2019-05-13T08:10:51.948Z,14.10
2019-05-13T08:13:22.540Z,14.50
2019-05-13T08:15:54.315Z,14.90
2019-05-13T08:18:22.326Z,15.30
2019-05-13T08:20:52.440Z,15.30
2019-05-13T08:23:21.730Z,15.60
2019-05-13T08:25:51.524Z,16.00
2019-05-13T08:28:22.577Z,16.30
2019-05-13T08:30:51.827Z,16.30
2019-05-13T08:33:22.688Z,16.40
2019-05-13T08:35:54.125Z,16.70
2019-05-13T08:38:23.078Z,16.90
2019-05-13T08:40:55.058Z,17.20
2019-05-13T08:43:24.053Z,17.70
2019-05-13T08:45:55.633Z,17.50
2019-05-13T08:48:23.425Z,17.60
2019-05-13T08:50:52.366Z,18.00
2019-05-13T08:53:21.333Z,18.20
2019-05-13T08:55:51.770Z,18.30
2019-05-13T08:58:21.654Z,18.70
2019-05-13T09:00:58.801Z,19.10
2019-05-13T09:03:26.203Z,19.30
2019-05-13T09:05:55.299Z,19.60
2019-05-13T09:08:25.506Z,19.70
2019-05-13T09:10:57.014Z,19.70
2019-05-13T09:13:25.398Z,19.70
2019-05-13T09:15:54.336Z,20.10
2019-05-13T09:18:23.178Z,20.20
2019-05-13T09:20:52.492Z,20.50
2019-05-13T09:23:22.333Z,20.80
2019-05-13T09:25:52.358Z,20.70
2019-05-13T09:28:22.126Z,21.00
2019-05-13T09:30:53.186Z,21.60
2019-05-13T09:33:22.137Z,21.70
2019-05-13T09:35:53.581Z,21.40
2019-05-13T09:38:22.900Z,21.30
2019-05-13T09:40:53.094Z,21.50
2019-05-13T09:43:22.445Z,21.00
2019-05-13T09:45:52.247Z,21.20
2019-05-13T09:48:22.443Z,21.30
2019-05-13T09:50:52.065Z,21.30
2019-05-13T09:53:22.220Z,21.80
2019-05-13T09:55:52.322Z,22.30
2019-05-13T09:58:22.350Z,22.30
2019-05-13T10:00:52.503Z,21.60
2019-05-13T10:03:25.310Z,21.60
2019-05-13T10:05:52.834Z,22.10
2019-05-13T10:08:22.208Z,22.70
2019-05-13T10:10:52.744Z,22.20
2019-05-13T10:13:23.185Z,20.60
2019-05-13T10:15:52.576Z,19.20
2019-05-13T10:18:22.032Z,17.80
2019-05-13T10:20:58.200Z,17.10
2019-05-13T10:23:26.845Z,17.00
2019-05-13T10:25:59.194Z,17.60
2019-05-13T10:28:28.734Z,19.10
2019-05-13T10:30:57.631Z,20.20
2019-05-13T10:33:27.334Z,19.90
2019-05-13T10:35:56.269Z,20.10
2019-05-13T10:38:27.805Z,20.50
2019-05-13T10:40:56.088Z,20.20
2019-05-13T10:43:31.440Z,19.40
2019-05-13T10:45:55.683Z,18.70
2019-05-13T10:48:24.852Z,17.80
2019-05-13T10:50:53.706Z,17.30
2019-05-13T10:53:22.535Z,17.80
2019-05-13T10:55:52.255Z,18.80
2019-05-13T10:58:23.445Z,19.40
2019-05-13T11:00:53.948Z,19.50
2019-05-13T11:03:23.314Z,18.80
2019-05-13T11:05:52.960Z,18.50
2019-05-13T11:08:22.628Z,19.70
2019-05-13T11:10:53.080Z,21.20
2019-05-13T11:13:23.176Z,22.70
2019-05-13T11:15:57.884Z,23.80
2019-05-13T11:18:24.464Z,24.00
2019-05-13T11:20:53.641Z,23.10
2019-05-13T11:23:23.255Z,21.60
2019-05-13T11:25:52.659Z,20.80
2019-05-13T11:28:21.466Z,21.00
2019-05-13T11:30:51.959Z,21.90
2019-05-13T11:33:22.278Z,22.90
2019-05-13T11:35:52.289Z,23.40
2019-05-13T11:38:22.329Z,23.50
2019-05-13T11:40:52.385Z,24.00
2019-05-13T11:43:24.878Z,23.70
2019-05-13T11:45:52.234Z,23.70
2019-05-13T11:48:23.442Z,23.70
2019-05-13T11:50:54.029Z,24.00
2019-05-13T11:53:38.491Z,24.60
2019-05-13T11:55:53.183Z,25.30
2019-05-13T11:58:21.976Z,25.90
2019-05-13T12:00:53.974Z,25.80
2019-05-13T12:03:23.445Z,24.80
2019-05-13T12:05:53.909Z,24.10
2019-05-13T12:08:23.547Z,24.40
2019-05-13T12:10:52.747Z,24.50
2019-05-13T12:13:23.226Z,25.30
2019-05-13T12:15:54.493Z,26.00
2019-05-13T12:18:23.828Z,26.90
2019-05-13T12:20:53.977Z,26.90
2019-05-13T12:23:23.328Z,26.20
2019-05-13T12:25:53.091Z,24.90
2019-05-13T12:28:22.189Z,23.10
2019-05-13T12:30:53.008Z,23.60
2019-05-13T12:33:22.846Z,23.80
2019-05-13T12:38:22.970Z,25.10
2019-05-13T12:40:53.115Z,24.90
2019-05-13T12:43:23.870Z,24.10
2019-05-13T12:45:53.464Z,23.00
2019-05-13T12:48:23.132Z,22.00
2019-05-13T12:50:53.910Z,21.30
2019-05-13T12:53:22.740Z,21.00
2019-05-13T12:55:56.139Z,21.00
2019-05-13T12:58:23.609Z,21.60
2019-05-13T13:00:54.774Z,22.70
2019-05-13T13:03:24.186Z,24.20
2019-05-13T13:05:53.450Z,25.30
2019-05-13T13:08:38.225Z,25.50
2019-05-13T13:10:53.602Z,25.50
2019-05-13T13:13:32.839Z,24.30
2019-05-13T13:15:53.920Z,24.40
2019-05-13T13:18:23.129Z,24.20
2019-05-13T13:21:00.302Z,23.50
2019-05-13T13:25:57.026Z,21.10
2019-05-13T13:28:24.372Z,20.00
2019-05-13T13:30:53.409Z,19.60
2019-05-13T13:33:22.632Z,20.60
2019-05-13T13:35:59.664Z,22.40
2019-05-13T13:40:54.050Z,23.50
2019-05-13T13:43:24.889Z,23.10
2019-05-13T13:46:25.338Z,23.10
2019-05-13T13:48:25.941Z,23.70
2019-05-13T13:50:56.234Z,24.90
2019-05-13T13:53:26.204Z,25.90
2019-05-13T13:55:56.164Z,26.20
2019-05-13T13:58:25.814Z,25.50
2019-05-13T14:01:05.846Z,24.10
2019-05-13T14:03:25.372Z,23.90
2019-05-13T14:05:54.544Z,24.30
2019-05-13T14:06:33.066Z,24.00
2019-05-13T14:06:55.935Z,22.50
2019-05-13T14:06:58.553Z,23.70
2019-05-13T14:08:23.551Z,25.30
2019-05-13T14:10:52.320Z,26.20
2019-05-13T14:13:21.772Z,26.10
2019-05-13T14:15:52.707Z,25.10
2019-05-13T14:18:26.689Z,23.70
2019-05-13T14:20:53.053Z,22.30
2019-05-13T14:23:22.014Z,21.20
2019-05-13T14:25:52.905Z,20.70
2019-05-13T14:28:22.843Z,20.10
2019-05-13T14:30:52.122Z,20.70
2019-05-13T14:33:20.895Z,22.30
2019-05-13T14:35:49.727Z,24.10
2019-05-13T14:38:19.498Z,26.30
2019-05-13T14:40:48.411Z,27.20
2019-05-13T14:43:17.407Z,27.70
2019-05-13T14:45:46.367Z,28.20
2019-05-13T14:48:15.229Z,28.00
2019-05-13T14:50:44.567Z,27.60
2019-05-13T14:53:13.504Z,25.70
2019-05-13T14:55:42.328Z,25.60
2019-05-13T14:58:11.180Z,25.90
2019-05-13T15:00:42.112Z,26.40
2019-05-13T15:03:13.030Z,26.70
2019-05-13T15:05:42.992Z,27.30
2019-05-13T15:08:12.046Z,27.00
2019-05-13T15:10:41.936Z,25.90
2019-05-13T15:13:11.045Z,25.30
2019-05-13T15:15:42.052Z,25.80
2019-05-13T15:18:10.590Z,26.60
2019-05-13T15:20:41.123Z,27.20
2019-05-13T15:23:11.937Z,27.20
2019-05-13T15:25:41.990Z,27.00
2019-05-13T15:28:11.968Z,26.80
2019-05-13T15:30:42.096Z,26.10
2019-05-13T15:33:11.175Z,25.70
2019-05-13T15:35:42.034Z,26.00
2019-05-13T15:38:12.457Z,25.90
2019-05-13T15:40:41.582Z,25.90
2019-05-13T15:43:11.668Z,25.90
2019-05-13T15:45:42.507Z,26.50
2019-05-13T15:48:11.643Z,26.70
2019-05-13T15:50:42.243Z,26.60
2019-05-13T15:53:12.700Z,26.80
2019-05-13T15:55:42.086Z,26.90
2019-05-13T15:58:11.787Z,26.20
2019-05-13T16:00:41.952Z,26.10
2019-05-13T16:03:12.228Z,26.60
2019-05-13T16:05:42.375Z,26.70
2019-05-13T16:08:12.289Z,26.50
2019-05-13T16:10:41.998Z,26.80
2019-05-13T16:13:11.965Z,26.90
2019-05-13T16:15:41.613Z,26.80
2019-05-13T16:18:11.645Z,26.50
2019-05-13T16:20:44.453Z,26.40
2019-05-13T16:23:12.442Z,25.30
2019-05-13T16:25:41.834Z,24.70
2019-05-13T16:28:11.497Z,25.40
2019-05-13T16:30:42.013Z,25.10
2019-05-13T16:33:12.201Z,24.90
2019-05-13T16:35:42.457Z,25.10
2019-05-13T16:38:11.897Z,24.80
2019-05-13T16:40:42.334Z,24.90
2019-05-13T16:43:12.899Z,25.70
2019-05-13T16:45:42.462Z,25.90
2019-05-13T16:48:12.311Z,25.40
2019-05-13T16:50:41.967Z,25.20
2019-05-13T16:53:11.227Z,25.10
2019-05-13T16:55:41.678Z,25.00
2019-05-13T16:58:12.617Z,24.70
2019-05-13T17:00:42.428Z,23.90
2019-05-13T17:03:11.685Z,23.20
2019-05-13T17:05:42.026Z,22.80
2019-05-13T17:08:11.094Z,22.60
2019-05-13T17:10:41.961Z,22.90
2019-05-13T17:13:11.673Z,23.00
2019-05-13T17:15:42.089Z,23.00
2019-05-13T17:18:22.717Z,23.00
2019-05-13T17:20:52.161Z,22.90
2019-05-13T17:23:21.238Z,22.60
2019-05-13T17:25:52.037Z,22.70
2019-05-13T17:28:22.002Z,22.80
2019-05-13T17:30:51.978Z,22.40
2019-05-13T17:33:23.035Z,22.20
2019-05-13T17:35:51.897Z,21.80
2019-05-13T17:38:21.790Z,21.00
2019-05-13T17:40:52.931Z,20.40
2019-05-13T17:43:21.417Z,19.40
2019-05-13T17:45:52.357Z,18.50
2019-05-13T17:48:28.543Z,17.70
2019-05-13T17:50:52.140Z,17.10
2019-05-13T17:53:21.670Z,16.50
2019-05-13T17:55:51.624Z,16.20
2019-05-13T17:58:22.120Z,15.80
2019-05-13T18:00:52.062Z,15.60
2019-05-13T18:03:21.234Z,15.40
2019-05-13T18:05:51.507Z,15.20
2019-05-13T18:08:20.478Z,14.90
2019-05-13T18:10:51.386Z,14.70
2019-05-13T18:13:21.517Z,14.60
2019-05-13T18:15:50.820Z,14.60
2019-05-13T18:18:21.529Z,14.80
2019-05-13T18:20:52.085Z,15.20
2019-05-13T18:23:20.722Z,15.50
2019-05-13T18:25:51.498Z,15.40
2019-05-13T18:28:28.566Z,14.90
2019-05-13T18:30:51.530Z,14.40
2019-05-13T18:33:21.088Z,14.10
2019-05-13T18:35:52.395Z,13.80
2019-05-13T18:38:21.148Z,13.60
2019-05-13T18:40:52.409Z,13.40
2019-05-13T18:43:21.574Z,13.10
2019-05-13T18:45:52.552Z,13.00
2019-05-13T18:48:22.173Z,12.80
2019-05-13T18:50:52.453Z,12.70
2019-05-13T18:53:21.651Z,12.60
2019-05-13T18:55:52.510Z,12.40
2019-05-13T18:58:22.243Z,12.40
2019-05-13T19:00:52.336Z,12.20
2019-05-13T19:03:21.809Z,12.10
2019-05-13T19:05:50.798Z,12.00
2019-05-13T19:08:21.507Z,11.90
2019-05-13T19:10:52.221Z,11.90
2019-05-13T19:13:21.762Z,11.80
2019-05-13T19:15:51.698Z,11.70
2019-05-13T19:18:21.447Z,11.70
2019-05-13T19:20:51.373Z,11.60
2019-05-13T19:23:20.270Z,11.60
2019-05-13T19:25:51.222Z,11.50
2019-05-13T19:28:22.118Z,11.50
2019-05-13T19:30:51.625Z,11.40
2019-05-13T19:33:22.095Z,11.30
2019-05-13T19:35:51.816Z,11.30
2019-05-13T19:38:21.227Z,11.20
2019-05-13T19:40:50.035Z,11.20
2019-05-13T19:43:18.794Z,11.10
2019-05-13T19:45:47.630Z,11.10
2019-05-13T19:48:16.485Z,11.00
2019-05-13T19:50:45.367Z,10.90
2019-05-13T19:53:14.142Z,10.90
2019-05-13T19:55:42.998Z,10.70
2019-05-13T19:58:12.455Z,10.70
2019-05-13T20:00:42.559Z,10.60
2019-05-13T20:03:12.171Z,10.50
2019-05-13T20:05:41.654Z,10.50
2019-05-13T20:08:10.559Z,10.40
2019-05-13T20:10:42.145Z,10.40
2019-05-13T20:13:11.222Z,10.40
2019-05-13T20:15:41.304Z,10.30
2019-05-13T20:18:12.198Z,10.30
2019-05-13T20:20:41.196Z,10.30
2019-05-13T20:23:12.033Z,10.20
2019-05-13T20:25:41.748Z,10.20
2019-05-13T20:28:11.612Z,10.20
2019-05-13T20:30:41.817Z,10.20
2019-05-13T20:33:12.048Z,10.20
2019-05-13T20:35:42.095Z,10.20
2019-05-13T20:38:11.656Z,10.20
2019-05-13T20:40:41.458Z,10.30
2019-05-13T20:43:11.877Z,10.30
2019-05-13T20:45:42.105Z,10.30
2019-05-13T20:48:12.078Z,10.30
2019-05-13T20:50:41.388Z,10.30
2019-05-13T20:53:11.785Z,10.30
2019-05-13T20:55:41.682Z,10.20
2019-05-13T20:58:12.811Z,10.30
2019-05-13T21:00:42.232Z,10.20
2019-05-13T21:03:11.961Z,10.10
2019-05-13T21:05:41.696Z,10.10
2019-05-13T21:08:10.849Z,10.00
2019-05-13T21:10:41.989Z,9.90
2019-05-13T21:13:12.265Z,9.90
2019-05-13T21:15:42.424Z,9.90
2019-05-13T21:18:11.589Z,9.80
2019-05-13T21:20:40.979Z,9.60
2019-05-13T21:23:11.315Z,9.60
2019-05-13T21:25:41.797Z,9.50
2019-05-13T21:28:11.405Z,9.30
2019-05-13T21:30:41.999Z,9.30
2019-05-13T21:33:11.544Z,9.20
2019-05-13T21:35:41.882Z,9.20
2019-05-13T21:38:11.370Z,9.10
2019-05-13T21:40:41.607Z,9.00
2019-05-13T21:43:11.053Z,8.90
2019-05-13T21:45:41.498Z,8.90
2019-05-13T21:48:11.077Z,8.80
2019-05-13T21:50:41.412Z,8.70
2019-05-13T21:53:12.441Z,8.60
2019-05-13T21:55:41.488Z,8.60
2019-05-13T21:58:11.404Z,8.50
2019-05-13T22:00:42.977Z,8.50
2019-05-13T22:03:11.915Z,8.40
2019-05-13T22:05:40.837Z,8.40
2019-05-13T22:08:12.095Z,8.30
2019-05-13T22:10:41.592Z,8.20
2019-05-13T22:13:11.881Z,8.10
2019-05-13T22:15:41.578Z,8.00
2019-05-13T22:18:11.290Z,7.90
2019-05-13T22:20:49.995Z,7.90
2019-05-13T22:23:11.952Z,7.90
2019-05-13T22:25:43.446Z,7.80
2019-05-13T22:28:11.886Z,7.70
2019-05-13T22:30:41.260Z,7.60
2019-05-13T22:33:12.398Z,7.70
2019-05-13T22:35:41.654Z,7.70
2019-05-13T22:38:12.303Z,7.80
2019-05-13T22:40:42.007Z,7.70
2019-05-13T22:43:12.201Z,7.70
2019-05-13T22:45:41.970Z,7.60
2019-05-13T22:48:12.055Z,7.50
2019-05-13T22:50:42.294Z,7.40
2019-05-13T22:53:12.044Z,7.40
2019-05-13T22:55:42.096Z,7.30
2019-05-13T22:58:11.247Z,7.20
2019-05-13T23:00:42.309Z,7.10
2019-05-13T23:03:10.901Z,7.10
2019-05-13T23:05:41.641Z,7.00
2019-05-13T23:08:11.268Z,6.90
2019-05-13T23:10:42.050Z,6.90
2019-05-13T23:13:10.965Z,6.90
2019-05-13T23:15:39.763Z,6.80
2019-05-13T23:18:08.568Z,6.80
2019-05-13T23:20:37.507Z,6.80
2019-05-13T23:23:06.455Z,6.70
2019-05-13T23:25:35.243Z,6.70
2019-05-13T23:28:04.351Z,6.80
2019-05-13T23:30:33.244Z,6.80
2019-05-13T23:33:02.366Z,6.70
2019-05-13T23:35:32.258Z,6.60
2019-05-13T23:38:01.750Z,6.40
2019-05-13T23:40:31.603Z,6.40
2019-05-13T23:43:02.054Z,6.20
2019-05-13T23:45:31.322Z,6.10
2019-05-13T23:48:01.602Z,6.00
2019-05-13T23:50:32.080Z,5.90
2019-05-13T23:53:01.095Z,5.80
2019-05-13T23:55:31.953Z,5.80
2019-05-13T23:58:01.798Z,5.70
